Time;durP1;ratioP1;P1;durP2;ratioP2;P2;SDS_P1;SDS_P2;PMS_P1;PMS_P2;Temp;Humidity;BMP_temperature;BMP_pressure;BME280_temperature;BME280_humidity;BME280_pressure;Samples;Min_cycle;Max_cycle;Signal;HPM_P1;HPM_P2
2022/11/02 00:02:33;;;;;;;;;;;;;;;9.64;70.95;99751.16;5251429;28;20057;-86
2022/11/02 00:05:23;;;;;;;;;;;;;;;9.50;71.64;99752.22;5251719;28;20424;-85
2022/11/02 00:08:13;;;;;;;;;;;;;;;9.52;72.46;99754.75;5242029;28;20373;-84
2022/11/02 00:11:03;;;;;;;;;;;;;;;9.58;71.17;99751.63;5223485;28;19927;-87
2022/11/02 00:13:53;;;;;;;;;;;;;;;9.53;71.63;99756.44;5242061;28;20511;-88
2022/11/02 00:16:43;;;;;;;;;;;;;;;9.33;71.37;99756.16;5242130;28;19938;-88
2022/11/02 00:19:33;;;;;;;;;;;;;;;9.35;72.03;99756.06;5243827;28;19920;-87
2022/11/02 00:22:24;;;;;;;;;;;;;;;9.27;71.76;99751.34;5242531;28;19920;-86
2022/11/02 00:25:16;;;;;;;;;;;;;;;9.22;71.50;99761.44;5254900;28;19931;-85
2022/11/02 00:28:06;;;;;;;;;;;;;;;9.28;71.66;99760.13;5245340;28;19968;-86
2022/11/02 00:30:56;;;;;;;;;;;;;;;9.20;71.55;99768.63;5242398;28;19930;-86
2022/11/02 00:33:48;;;;;;;;;;;;;;;9.17;71.03;99764.44;5243353;28;20539;-84
2022/11/02 00:36:38;;;;;;;;;;;;;;;9.14;71.55;99756.72;5244202;28;19931;-84
2022/11/02 00:39:28;;;;;;;;;;;;;;;9.21;71.09;99761.56;5253260;28;20277;-85
2022/11/02 00:42:17;;;;;;;;;;;;;;;9.08;71.59;99759.00;5276090;28;19910;-87
2022/11/02 00:45:08;;;;;;;;;;;;;;;9.08;71.46;99762.47;5273203;28;19920;-82
2022/11/02 00:47:58;;;;;;;;;;;;;;;9.18;72.00;99763.47;5256021;28;20040;-83
2022/11/02 00:50:51;;;;;;;;;;;;;;;9.17;71.97;99760.94;5236407;28;19951;-84
2022/11/02 00:53:44;;;;;;;;;;;;;;;9.11;72.41;99764.06;5224908;28;19927;-83
2022/11/02 00:56:34;;;;;;;;;;;;;;;9.15;72.20;99761.06;5253137;28;19973;-84
2022/11/02 00:59:26;;;;;;;;;;;;;;;9.18;71.88;99767.91;5232602;28;19932;-85
2022/11/02 01:02:18;;;;;;;;;;;;;;;9.10;71.51;99765.00;5255240;28;20026;-85
2022/11/02 01:05:09;;;;;;;;;;;;;;;8.93;73.29;99768.91;5256808;28;20014;-84
2022/11/02 01:07:59;;;;;;;;;;;;;;;9.07;72.87;99767.88;5241375;28;20032;-84
2022/11/02 01:10:50;;;;;;;;;;;;;;;9.04;72.43;99776.03;5248135;28;19920;-85
2022/11/02 01:13:41;;;;;;;;;;;;;;;9.08;72.17;99775.72;5249165;28;19920;-82
2022/11/02 01:16:31;;;;;;;;;;;;;;;9.09;73.30;99771.25;5256532;28;19927;-84
2022/11/02 01:19:21;;;;;;;;;;;;;;;9.05;72.81;99775.94;5242953;28;20115;-83
2022/11/02 01:22:11;;;;;;;;;;;;;;;8.98;73.64;99772.06;5243045;28;19931;-83
2022/11/02 01:25:01;;;;;;;;;;;;;;;8.98;72.69;99764.13;5242277;28;19928;-83
2022/11/02 01:27:51;;;;;;;;;;;;;;;9.01;73.18;99760.41;5252365;28;20348;-83
2022/11/02 01:30:42;;;;;;;;;;;;;;;9.06;74.04;99756.44;5240242;28;19982;-83
2022/11/02 01:33:34;;;;;;;;;;;;;;;9.08;73.21;99751.06;5256263;28;19920;-84
2022/11/02 01:36:25;;;;;;;;;;;;;;;9.18;73.54;99752.06;5255547;28;20006;-85
2022/11/02 01:39:16;;;;;;;;;;;;;;;9.05;73.28;99753.94;5242397;28;20471;-81
2022/11/02 01:42:20;;;;;;;;;;;;;;;9.12;73.45;99760.44;5210896;28;19990;-84
2022/11/02 01:45:12;;;;;;;;;;;;;;;9.16;74.04;99761.88;5222687;28;20384;-86
2022/11/02 01:48:03;;;;;;;;;;;;;;;9.26;73.38;99747.00;5221992;28;20023;-86
2022/11/02 01:50:54;;;;;;;;;;;;;;;9.15;73.30;99753.13;5229815;28;19967;-81
2022/11/02 01:53:46;;;;;;;;;;;;;;;9.04;73.09;99750.44;5234422;28;19934;-81
2022/11/02 01:56:38;;;;;;;;;;;;;;;9.08;73.62;99754.53;5233518;28;19931;-84
2022/11/02 01:59:31;;;;;;;;;;;;;;;9.06;73.43;99742.38;5246541;28;19927;-83
2022/11/02 02:02:23;;;;;;;;;;;;;;;9.10;72.95;99738.53;5255238;28;19931;-84
2022/11/02 02:05:14;;;;;;;;;;;;;;;9.11;73.46;99729.66;5241153;28;19927;-83
2022/11/02 02:08:07;;;;;;;;;;;;;;;9.01;73.46;99724.22;5240880;28;20318;-84
2022/11/02 02:10:57;;;;;;;;;;;;;;;9.09;73.70;99719.19;5247770;28;20400;-83
2022/11/02 02:13:48;;;;;;;;;;;;;;;9.15;73.47;99718.72;5255388;28;20369;-86
2022/11/02 02:16:51;;;;;;;;;;;;;;;9.22;73.78;99716.44;5227016;28;19943;-83
2022/11/02 02:19:41;;;;;;;;;;;;;;;9.28;73.63;99721.28;5241305;28;20415;-82
2022/11/02 02:22:51;;;;;;;;;;;;;;;9.28;73.78;99713.34;5255641;28;19927;-82
2022/11/02 02:26:00;;;;;;;;;;;;;;;9.33;73.52;99712.97;5232431;28;20325;-83
2022/11/02 02:28:59;;;;;;;;;;;;;;;9.33;73.20;99719.09;5200458;28;19928;-88
2022/11/02 02:32:08;;;;;;;;;;;;;;;9.22;73.30;99713.81;5200399;28;19921;-85
2022/11/02 02:35:03;;;;;;;;;;;;;;;9.10;73.50;99706.78;5213752;28;19971;-85
2022/11/02 02:37:59;;;;;;;;;;;;;;;9.10;73.44;99706.78;5227218;28;20361;-86
2022/11/02 02:41:04;;;;;;;;;;;;;;;9.15;73.53;99704.66;5257172;28;20026;-84
2022/11/02 02:43:56;;;;;;;;;;;;;;;9.10;74.13;99704.16;5266301;28;19926;-87
2022/11/02 02:46:54;;;;;;;;;;;;;;;9.15;73.70;99704.66;5252167;28;19935;-83
2022/11/02 02:49:53;;;;;;;;;;;;;;;9.17;73.41;99700.94;5257992;28;19935;-85
2022/11/02 02:52:46;;;;;;;;;;;;;;;9.02;74.69;99699.44;5223768;28;19920;-86
2022/11/02 02:55:40;;;;;;;;;;;;;;;9.01;73.46;99697.78;5236463;28;20375;-86
2022/11/02 02:58:35;;;;;;;;;;;;;;;9.05;74.18;99699.22;5242631;28;19980;-86
2022/11/02 03:01:26;;;;;;;;;;;;;;;9.12;73.92;99694.31;5242042;28;19931;-88
2022/11/02 03:04:17;;;;;;;;;;;;;;;9.10;74.33;99694.41;5256799;28;20417;-83
2022/11/02 03:07:10;;;;;;;;;;;;;;;9.17;73.76;99700.06;5243818;28;19942;-85
2022/11/02 03:10:06;;;;;;;;;;;;;;;9.24;73.60;99693.38;5259933;28;19926;-84
2022/11/02 03:13:00;;;;;;;;;;;;;;;9.33;74.00;99700.56;5251001;28;19920;-85
2022/11/02 03:15:58;;;;;;;;;;;;;;;9.49;73.48;99694.94;5244608;28;19943;-87
2022/11/02 03:18:57;;;;;;;;;;;;;;;9.50;73.70;99703.72;5240174;28;19932;-86
2022/11/02 03:21:54;;;;;;;;;;;;;;;9.45;74.13;99714.69;5227311;28;19921;-84
2022/11/02 03:24:59;;;;;;;;;;;;;;;9.40;73.53;99706.25;5243923;28;19920;-84
2022/11/02 03:27:50;;;;;;;;;;;;;;;9.49;73.49;99709.97;5257135;28;19928;-85
2022/11/02 03:30:49;;;;;;;;;;;;;;;9.35;73.42;99711.91;5251790;28;19920;-84
2022/11/02 03:33:55;;;;;;;;;;;;;;;9.43;74.00;99706.00;5231548;28;19935;-83
2022/11/02 03:37:01;;;;;;;;;;;;;;;9.58;73.60;99711.94;5199980;28;19932;-84
2022/11/02 03:39:55;;;;;;;;;;;;;;;9.49;72.83;99702.88;5214174;28;20322;-84
2022/11/02 03:42:47;;;;;;;;;;;;;;;9.75;72.92;99698.19;5200044;28;20022;-84
2022/11/02 03:45:40;;;;;;;;;;;;;;;10.04;74.05;99705.63;5218982;28;19975;-88
2022/11/02 03:48:34;;;;;;;;;;;;;;;10.38;74.18;99705.59;5260175;28;19994;-85
2022/11/02 03:51:28;;;;;;;;;;;;;;;10.53;73.69;99699.03;5246489;28;20008;-85
2022/11/02 03:54:24;;;;;;;;;;;;;;;10.69;73.24;99711.84;5246241;28;20408;-86
2022/11/02 03:57:20;;;;;;;;;;;;;;;10.67;73.01;99712.00;5230561;28;20038;-84
2022/11/02 04:00:11;;;;;;;;;;;;;;;10.43;72.89;99720.16;5224261;28;19926;-86
2022/11/02 04:03:10;;;;;;;;;;;;;;;10.14;71.72;99725.13;5268934;28;19943;-88
2022/11/02 04:06:05;;;;;;;;;;;;;;;9.82;72.13;99727.69;5282245;28;19947;-86
2022/11/02 04:08:58;;;;;;;;;;;;;;;9.68;73.05;99726.13;5250346;28;19927;-83
2022/11/02 04:14:57;;;;;;;;;;;;;;;9.72;72.45;99729.38;5246519;28;19920;-82
2022/11/02 04:20:57;;;;;;;;;;;;;;;9.63;71.64;99725.63;5237038;28;20024;-84
2022/11/02 04:26:56;;;;;;;;;;;;;;;9.44;73.08;99725.38;5242944;28;20008;-83
2022/11/02 04:29:47;;;;;;;;;;;;;;;9.44;73.35;99731.53;5244286;28;20064;-82
2022/11/02 04:35:51;;;;;;;;;;;;;;;9.49;72.71;99726.72;5258796;28;19927;-85
2022/11/02 04:38:43;;;;;;;;;;;;;;;9.81;72.77;99732.16;5244053;28;19920;-86
2022/11/02 04:41:48;;;;;;;;;;;;;;;9.70;72.52;99732.16;5218183;28;20044;-85
2022/11/02 04:44:46;;;;;;;;;;;;;;;9.47;72.46;99738.38;5231704;28;20007;-86
2022/11/02 04:47:43;;;;;;;;;;;;;;;9.63;72.68;99733.56;5245706;28;19927;-87
2022/11/02 04:50:33;;;;;;;;;;;;;;;9.50;72.72;99738.13;5259309;28;19927;-84
2022/11/02 04:53:24;;;;;;;;;;;;;;;9.32;72.91;99748.34;5238314;28;19927;-86
2022/11/02 04:56:15;;;;;;;;;;;;;;;9.45;73.32;99748.25;5228318;28;20466;-85
2022/11/02 04:59:05;;;;;;;;;;;;;;;9.77;71.02;99743.94;5230467;28;20477;-82
2022/11/02 05:01:58;;;;;;;;;;;;;;;9.53;71.40;99751.13;5232177;28;19927;-83
2022/11/02 05:04:48;;;;;;;;;;;;;;;9.24;72.38;99748.94;5256868;28;19938;-84
2022/11/02 05:07:38;;;;;;;;;;;;;;;9.16;72.18;99751.31;5230592;28;19930;-82
2022/11/02 05:10:29;;;;;;;;;;;;;;;9.08;71.73;99751.06;5256490;28;19974;-84
2022/11/02 05:13:19;;;;;;;;;;;;;;;9.02;71.80;99756.81;5232303;28;19969;-85
2022/11/02 05:16:11;;;;;;;;;;;;;;;8.91;71.86;99755.81;5236695;28;20429;-85
2022/11/02 05:19:02;;;;;;;;;;;;;;;8.94;72.01;99754.75;5213862;28;19924;-85
2022/11/02 05:21:54;;;;;;;;;;;;;;;9.03;72.33;99759.31;5200076;28;20402;-86
2022/11/02 05:24:46;;;;;;;;;;;;;;;9.09;71.84;99766.81;5214326;28;19924;-83
2022/11/02 05:27:37;;;;;;;;;;;;;;;8.93;72.03;99759.16;5202464;28;19932;-88
2022/11/02 05:30:28;;;;;;;;;;;;;;;8.86;72.45;99759.75;5233367;28;19921;-85
2022/11/02 05:33:19;;;;;;;;;;;;;;;8.89;71.89;99773.59;5215459;28;19925;-83
2022/11/02 05:36:11;;;;;;;;;;;;;;;8.89;72.23;99770.09;5202240;28;19921;-87
2022/11/02 05:39:05;;;;;;;;;;;;;;;9.10;72.48;99767.63;5202426;28;19928;-84
2022/11/02 05:41:55;;;;;;;;;;;;;;;9.00;73.55;99761.34;5215765;28;19920;-85
2022/11/02 05:44:45;;;;;;;;;;;;;;;9.29;72.46;99760.00;5206917;28;19924;-85
2022/11/02 05:47:36;;;;;;;;;;;;;;;9.09;73.05;99758.88;5255707;28;20003;-86
2022/11/02 05:50:26;;;;;;;;;;;;;;;9.10;72.66;99759.72;5242104;28;19942;-84
2022/11/02 05:53:17;;;;;;;;;;;;;;;9.16;73.60;99769.81;5243813;28;19931;-85
2022/11/02 05:56:08;;;;;;;;;;;;;;;9.14;72.69;99771.78;5243595;28;19927;-84
2022/11/02 05:58:59;;;;;;;;;;;;;;;9.15;72.62;99776.94;5236680;28;19935;-85
2022/11/02 06:01:49;;;;;;;;;;;;;;;9.08;74.82;99782.81;5235069;28;20069;-87
2022/11/02 06:04:40;;;;;;;;;;;;;;;9.26;74.59;99781.41;5247090;28;19923;-86
2022/11/02 06:07:30;;;;;;;;;;;;;;;9.43;73.82;99780.13;5243330;28;19928;-88
2022/11/02 06:10:20;;;;;;;;;;;;;;;9.55;73.71;99781.84;5216422;22;19916;-83
2022/11/02 06:13:10;;;;;;;;;;;;;;;9.57;74.23;99795.81;5230729;28;19928;-83
2022/11/02 06:16:02;;;;;;;;;;;;;;;9.71;74.24;99812.44;5238774;28;19946;-83
2022/11/02 06:18:52;;;;;;;;;;;;;;;9.77;73.46;99815.47;5247157;28;19976;-83
2022/11/02 06:21:42;;;;;;;;;;;;;;;9.82;73.86;99820.38;5238512;22;19927;-72
2022/11/02 06:24:36;;;;;;;;;;;;;;;9.99;73.30;99833.16;5240311;28;20524;-72
2022/11/02 06:27:25;;;;;;;;;;;;;;;10.10;73.06;99832.34;5272865;28;20291;-72
2022/11/02 06:30:16;;;;;;;;;;;;;;;10.22;73.05;99830.50;5249235;28;19954;-73
2022/11/02 06:33:05;;;;;;;;;;;;;;;10.27;73.06;99839.84;5265562;28;19927;-71
2022/11/02 06:35:56;;;;;;;;;;;;;;;10.38;73.06;99844.28;5264865;28;20332;-71
2022/11/02 06:38:46;;;;;;;;;;;;;;;10.32;72.79;99842.94;5265217;28;19951;-73
2022/11/02 06:41:35;;;;;;;;;;;;;;;10.53;73.03;99851.03;5260658;28;19935;-69
2022/11/02 06:44:25;;;;;;;;;;;;;;;10.58;73.18;99851.47;5265444;28;20032;-68
2022/11/02 06:47:15;;;;;;;;;;;;;;;10.86;72.52;99861.66;5264214;28;20568;-68
2022/11/02 06:50:05;;;;;;;;;;;;;;;10.87;73.01;99860.72;5263790;28;19941;-68
2022/11/02 06:52:55;;;;;;;;;;;;;;;10.94;72.90;99860.09;5265686;28;19927;-68
2022/11/02 06:55:49;;;;;;;;;;;;;;;11.04;73.10;99868.16;5264875;28;20405;-70
2022/11/02 06:58:39;;;;;;;;;;;;;;;11.11;73.38;99871.97;5271714;28;19934;-70
2022/11/02 07:01:29;;;;;;;;;;;;;;;11.20;73.53;99879.19;5262419;28;20020;-70
2022/11/02 07:04:19;;;;;;;;;;;;;;;11.35;73.28;99881.53;5264291;28;20021;-70
2022/11/02 07:07:09;;;;;;;;;;;;;;;11.41;73.28;99900.47;5255757;28;19927;-69
2022/11/02 07:09:59;;;;;;;;;;;;;;;11.49;73.23;99903.34;5265502;28;20424;-69
2022/11/02 07:12:53;;;;;;;;;;;;;;;11.66;72.72;99917.03;5254580;28;19931;-69
2022/11/02 07:15:43;;;;;;;;;;;;;;;11.65;73.13;99915.34;5253905;28;19928;-69
2022/11/02 07:18:33;;;;;;;;;;;;;;;11.67;73.04;99916.91;5254799;28;20061;-68
2022/11/02 07:21:23;;;;;;;;;;;;;;;11.75;72.87;99927.75;5254563;28;19920;-70
2022/11/02 07:24:13;;;;;;;;;;;;;;;11.84;72.78;99926.13;5274657;28;19973;-72
2022/11/02 07:27:03;;;;;;;;;;;;;;;11.92;72.43;99920.16;5252224;28;20021;-71
2022/11/02 07:29:53;;;;;;;;;;;;;;;11.99;72.51;99924.00;5247541;28;19927;-72
2022/11/02 07:32:43;;;;;;;;;;;;;;;12.07;72.71;99921.53;5246810;28;19927;-72
2022/11/02 07:35:34;;;;;;;;;;;;;;;12.15;72.73;99921.75;5263379;28;19973;-72
2022/11/02 07:38:24;;;;;;;;;;;;;;;12.26;72.67;99925.28;5263697;28;20546;-71
2022/11/02 07:41:14;;;;;;;;;;;;;;;12.32;72.69;99922.94;5268063;28;19931;-71
2022/11/02 07:44:03;;;;;;;;;;;;;;;12.34;72.60;99931.63;5244106;28;19921;-71
2022/11/02 07:47:09;;;;;;;;;;;;;;;12.50;71.67;99922.31;5253909;28;19927;-71
2022/11/02 07:49:59;;;;;;;;;;;;;;;12.53;72.00;99925.56;5260162;28;19973;-71
2022/11/02 07:52:50;;;;;;;;;;;;;;;12.56;72.30;99927.94;5254394;28;19927;-72
2022/11/02 07:55:40;;;;;;;;;;;;;;;12.69;72.24;99930.38;5259916;28;20045;-70
2022/11/02 07:58:30;;;;;;;;;;;;;;;12.77;71.75;99924.38;5259607;28;20048;-72
2022/11/02 08:01:20;;;;;;;;;;;;;;;12.92;71.66;99925.69;5263043;28;20305;-70
2022/11/02 08:04:10;;;;;;;;;;;;;;;13.00;71.41;99923.19;5248322;28;19920;-69
2022/11/02 08:07:00;;;;;;;;;;;;;;;13.19;71.44;99917.06;5247172;28;19990;-72
2022/11/02 08:09:50;;;;;;;;;;;;;;;13.73;69.63;99923.69;5264630;28;20640;-70
2022/11/02 08:12:40;;;;;;;;;;;;;;;13.92;69.24;99924.69;5274175;28;20603;-71
2022/11/02 08:15:30;;;;;;;;;;;;;;;13.81;69.62;99925.69;5268599;28;20301;-70
2022/11/02 08:18:21;;;;;;;;;;;;;;;14.18;67.06;99919.56;5272531;28;19946;-70
2022/11/02 08:21:11;;;;;;;;;;;;;;;14.38;68.00;99918.53;5263006;28;20016;-70
2022/11/02 08:24:01;;;;;;;;;;;;;;;14.51;68.51;99926.25;5265047;28;19927;-70
2022/11/02 08:26:51;;;;;;;;;;;;;;;14.68;68.23;99929.97;5276639;28;19987;-71
2022/11/02 08:29:43;;;;;;;;;;;;;;;14.85;67.46;99928.34;5274926;28;20434;-70
2022/11/02 08:32:33;;;;;;;;;;;;;;;14.94;67.06;99930.97;5270379;28;19950;-72
2022/11/02 08:35:23;;;;;;;;;;;;;;;14.95;66.23;99931.78;5289231;28;19931;-70
2022/11/02 08:38:13;;;;;;;;;;;;;;;15.03;66.54;99934.53;5279465;28;19923;-72
2022/11/02 08:41:03;;;;;;;;;;;;;;;15.00;66.18;99932.19;5280252;28;20016;-73
2022/11/02 08:43:53;;;;;;;;;;;;;;;14.88;66.39;99942.22;5289517;28;19926;-69
2022/11/02 08:46:43;;;;;;;;;;;;;;;14.52;66.63;99934.09;5273331;28;20430;-70
2022/11/02 08:49:33;;;;;;;;;;;;;;;14.86;67.04;99936.19;5288371;28;19949;-71
2022/11/02 08:52:23;;;;;;;;;;;;;;;15.01;66.50;99934.72;5285809;28;20576;-71
2022/11/02 08:55:13;;;;;;;;;;;;;;;15.02;66.14;99933.72;5264776;28;19938;-69
2022/11/02 08:58:03;;;;;;;;;;;;;;;15.16;64.70;99940.38;5288020;28;20304;-70
2022/11/02 09:00:54;;;;;;;;;;;;;;;15.36;64.96;99941.09;5267694;28;19959;-71
2022/11/02 09:03:44;;;;;;;;;;;;;;;15.31;66.06;99940.72;5273057;28;20512;-71
2022/11/02 09:06:34;;;;;;;;;;;;;;;14.93;66.88;99945.31;5261951;28;20591;-70
2022/11/02 09:09:24;;;;;;;;;;;;;;;15.13;65.86;99937.16;5267035;28;20325;-71
2022/11/02 09:12:14;;;;;;;;;;;;;;;15.34;65.54;99944.94;5265333;28;20017;-70
2022/11/02 09:15:04;;;;;;;;;;;;;;;15.30;64.46;99947.06;5277609;28;19973;-70
2022/11/02 09:17:54;;;;;;;;;;;;;;;15.54;64.21;99950.97;5279676;28;20001;-71
2022/11/02 09:20:44;;;;;;;;;;;;;;;15.49;65.45;99936.19;5267251;28;20509;-71
2022/11/02 09:23:34;;;;;;;;;;;;;;;15.57;64.15;99939.97;5267726;28;20443;-71
2022/11/02 09:26:24;;;;;;;;;;;;;;;15.57;64.66;99942.66;5267107;28;19927;-71
2022/11/02 09:29:14;;;;;;;;;;;;;;;15.67;64.66;99943.44;5277428;28;20014;-71
2022/11/02 09:32:04;;;;;;;;;;;;;;;15.98;61.35;99944.69;5287453;28;19969;-71
2022/11/02 09:34:54;;;;;;;;;;;;;;;15.62;64.33;99949.19;5288243;28;19934;-71
2022/11/02 09:37:44;;;;;;;;;;;;;;;15.82;63.09;99955.25;5287236;28;19926;-71
2022/11/02 09:40:39;;;;;;;;;;;;;;;15.84;62.62;99953.28;5283428;28;20024;-71
2022/11/02 09:43:47;;;;;;;;;;;;;;;15.82;62.84;99954.41;5257318;28;20463;-71
2022/11/02 09:46:38;;;;;;;;;;;;;;;15.33;63.56;99952.09;5251163;28;20009;-71
2022/11/02 09:49:29;;;;;;;;;;;;;;;15.41;63.92;99970.03;5266277;28;19950;-71
2022/11/02 09:52:30;;;;;;;;;;;;;;;15.63;63.85;99968.75;5266225;28;19927;-71
2022/11/02 09:55:30;;;;;;;;;;;;;;;15.84;62.81;99974.66;5252174;28;20208;-74
2022/11/02 09:58:33;;;;;;;;;;;;;;;16.01;62.00;99977.47;5273897;28;19926;-71
2022/11/02 10:01:25;;;;;;;;;;;;;;;15.26;63.25;99973.25;5251227;28;19927;-72
2022/11/02 10:04:18;;;;;;;;;;;;;;;15.69;62.18;99973.50;5266684;28;19927;-72
2022/11/02 10:07:17;;;;;;;;;;;;;;;15.93;62.38;99971.06;5266720;28;19927;-72
2022/11/02 10:10:16;;;;;;;;;;;;;;;15.40;60.65;99969.22;5272995;28;19919;-72
2022/11/02 10:13:09;;;;;;;;;;;;;;;15.61;61.37;99976.09;5282387;28;19926;-72
2022/11/02 10:16:01;;;;;;;;;;;;;;;15.41;61.64;99970.88;5287295;28;19930;-71
2022/11/02 10:18:52;;;;;;;;;;;;;;;15.56;60.90;99973.03;5270625;28;19969;-72
2022/11/02 10:21:45;;;;;;;;;;;;;;;15.45;60.50;99939.34;5265939;28;20377;-71
2022/11/02 10:24:41;;;;;;;;;;;;;;;15.71;60.53;99971.53;5256096;28;19941;-71
2022/11/02 10:27:35;;;;;;;;;;;;;;;15.89;59.23;99968.84;5257532;28;19970;-71
2022/11/02 10:30:26;;;;;;;;;;;;;;;15.64;60.47;99970.44;5271253;28;20317;-69
2022/11/02 10:33:19;;;;;;;;;;;;;;;15.44;60.05;99969.75;5266086;28;20393;-73
2022/11/02 10:36:23;;;;;;;;;;;;;;;15.04;60.78;99987.84;5251230;28;19953;-73
2022/11/02 10:39:22;;;;;;;;;;;;;;;15.10;60.91;99980.19;5272689;28;20549;-73
2022/11/02 10:42:31;;;;;;;;;;;;;;;15.06;61.58;99976.16;5284577;28;20003;-72
2022/11/02 10:45:30;;;;;;;;;;;;;;;15.58;60.05;99981.75;5287063;28;19930;-73
2022/11/02 10:48:39;;;;;;;;;;;;;;;15.40;60.35;99974.56;5286444;28;19926;-73
2022/11/02 10:51:30;;;;;;;;;;;;;;;15.74;59.41;99974.75;5286140;28;19974;-73
2022/11/02 10:54:20;;;;;;;;;;;;;;;15.41;60.38;99973.56;5277327;28;19927;-73
2022/11/02 10:57:17;;;;;;;;;;;;;;;15.92;60.49;99969.38;5286316;28;19939;-72
2022/11/02 11:00:23;;;;;;;;;;;;;;;15.40;59.80;99976.38;5275352;28;19920;-73
2022/11/02 11:03:14;;;;;;;;;;;;;;;15.50;59.20;99967.31;5266904;28;20393;-73
2022/11/02 11:06:05;;;;;;;;;;;;;;;15.29;59.46;99964.06;5265467;28;19992;-73
2022/11/02 11:08:59;;;;;;;;;;;;;;;15.32;60.50;99960.25;5265444;28;19934;-72
2022/11/02 11:11:58;;;;;;;;;;;;;;;14.88;60.93;99971.59;5265684;28;20005;-72
2022/11/02 11:14:58;;;;;;;;;;;;;;;14.55;60.67;99954.31;5278663;28;19963;-72
2022/11/02 11:18:09;;;;;;;;;;;;;;;15.35;59.18;99960.78;5254391;28;19926;-72
2022/11/02 11:21:19;;;;;;;;;;;;;;;15.82;59.11;99959.75;5243574;28;19973;-73
2022/11/02 11:24:19;;;;;;;;;;;;;;;15.25;58.65;99970.69;5244609;28;19928;-73
2022/11/02 11:27:14;;;;;;;;;;;;;;;15.64;58.72;99962.44;5250161;28;19927;-72
2022/11/02 11:30:22;;;;;;;;;;;;;;;16.16;57.13;99955.38;5255177;28;20366;-73
2022/11/02 11:33:33;;;;;;;;;;;;;;;16.44;57.15;99944.50;5265525;28;20405;-73
2022/11/02 11:36:33;;;;;;;;;;;;;;;15.61;57.96;99946.69;5264956;28;19985;-73
2022/11/02 11:39:28;;;;;;;;;;;;;;;16.06;56.61;99949.28;5264906;28;19931;-72
2022/11/02 11:42:23;;;;;;;;;;;;;;;15.81;56.46;99934.88;5271535;28;19920;-72
2022/11/02 11:45:19;;;;;;;;;;;;;;;16.22;55.70;99940.50;5268487;28;20692;-72
2022/11/02 11:48:23;;;;;;;;;;;;;;;16.57;55.02;99944.09;5285998;28;20004;-70
2022/11/02 11:51:36;;;;;;;;;;;;;;;16.44;55.47;99937.31;5285676;28;19949;-72
2022/11/02 11:54:27;;;;;;;;;;;;;;;15.81;55.63;99934.03;5286268;28;19965;-72
2022/11/02 11:57:29;;;;;;;;;;;;;;;16.38;55.86;99935.25;5258087;28;20020;-71
2022/11/02 12:00:26;;;;;;;;;;;;;;;16.54;54.37;99929.16;5284151;28;19926;-72
2022/11/02 12:03:16;;;;;;;;;;;;;;;15.79;54.12;99925.31;5285684;28;19938;-73
2022/11/02 12:06:16;;;;;;;;;;;;;;;15.73;54.72;99916.94;5285887;28;19935;-72
2022/11/02 12:09:16;;;;;;;;;;;;;;;15.76;54.40;99910.44;5284095;28;19927;-73
2022/11/02 12:12:18;;;;;;;;;;;;;;;16.08;55.47;99908.97;5276388;28;19966;-72
2022/11/02 12:15:08;;;;;;;;;;;;;;;16.08;53.72;99907.16;5262851;28;19924;-72
2022/11/02 12:18:22;;;;;;;;;;;;;;;16.03;54.37;99906.78;5272103;28;19924;-73
2022/11/02 12:21:20;;;;;;;;;;;;;;;15.78;54.80;99902.25;5252933;28;19931;-72
2022/11/02 12:24:11;;;;;;;;;;;;;;;16.20;53.27;99900.53;5267888;28;20400;-72
2022/11/02 12:27:03;;;;;;;;;;;;;;;15.96;53.60;99897.72;5272462;28;19931;-73
2022/11/02 12:30:00;;;;;;;;;;;;;;;16.28;52.66;99901.59;5276591;28;19923;-73
2022/11/02 12:32:57;;;;;;;;;;;;;;;16.03;53.09;99898.75;5253671;28;19920;-73
2022/11/02 12:35:53;;;;;;;;;;;;;;;16.63;52.10;99889.91;5268737;28;19927;-72
2022/11/02 12:38:45;;;;;;;;;;;;;;;16.75;52.37;99902.00;5268376;28;19946;-72
2022/11/02 12:41:41;;;;;;;;;;;;;;;15.96;52.02;99898.56;5274145;28;19927;-72
2022/11/02 12:44:37;;;;;;;;;;;;;;;16.34;52.25;99891.09;5277132;28;19920;-73
2022/11/02 12:47:30;;;;;;;;;;;;;;;16.14;51.32;99882.44;5272591;28;20540;-73
2022/11/02 12:50:20;;;;;;;;;;;;;;;16.11;51.92;99881.91;5279760;28;19926;-72
2022/11/02 12:53:24;;;;;;;;;;;;;;;15.97;51.83;99884.16;5289102;28;19919;-72
2022/11/02 12:56:28;;;;;;;;;;;;;;;15.86;51.31;99886.25;5280318;28;19924;-72
2022/11/02 12:59:28;;;;;;;;;;;;;;;16.26;51.52;99895.53;5273782;28;19927;-72
2022/11/02 13:02:27;;;;;;;;;;;;;;;16.28;50.55;99874.81;5274529;28;19920;-73
2022/11/02 13:05:22;;;;;;;;;;;;;;;15.74;51.76;99872.31;5268041;28;19966;-72
2022/11/02 13:08:12;;;;;;;;;;;;;;;16.04;51.38;99865.66;5267232;28;19989;-72
2022/11/02 13:11:10;;;;;;;;;;;;;;;15.73;52.33;99868.78;5273664;28;20306;-72
2022/11/02 13:14:02;;;;;;;;;;;;;;;15.15;53.06;99860.41;5289105;28;20065;-72
2022/11/02 13:17:04;;;;;;;;;;;;;;;15.29;52.17;99865.19;5285657;28;20395;-72
2022/11/02 13:19:56;;;;;;;;;;;;;;;15.70;51.16;99822.81;5275099;28;19931;-72
2022/11/02 13:22:55;;;;;;;;;;;;;;;16.08;51.03;99866.19;5267239;28;19927;-73
2022/11/02 13:25:51;;;;;;;;;;;;;;;16.01;52.25;99868.66;5252418;28;20020;-72
2022/11/02 13:28:44;;;;;;;;;;;;;;;15.98;51.63;99858.25;5271445;28;20391;-72
2022/11/02 13:31:36;;;;;;;;;;;;;;;16.04;51.99;99854.13;5273416;28;20016;-73
2022/11/02 13:34:35;;;;;;;;;;;;;;;16.36;51.14;99856.16;5246802;28;19927;-73
2022/11/02 13:37:28;;;;;;;;;;;;;;;16.45;50.84;99857.84;5235575;28;20015;-72
2022/11/02 13:40:18;;;;;;;;;;;;;;;15.81;51.34;99861.81;5278222;28;20008;-72
2022/11/02 13:43:27;;;;;;;;;;;;;;;15.45;52.49;99851.16;5288016;28;20006;-72
2022/11/02 13:46:31;;;;;;;;;;;;;;;15.94;52.18;99855.06;5287901;28;19980;-72
2022/11/02 13:49:24;;;;;;;;;;;;;;;16.00;51.17;99858.13;5259479;28;19920;-70
2022/11/02 13:52:23;;;;;;;;;;;;;;;15.67;52.89;99849.88;5286145;28;20080;-71
2022/11/02 13:55:18;;;;;;;;;;;;;;;15.34;52.25;99854.91;5288683;28;19926;-71
2022/11/02 13:58:19;;;;;;;;;;;;;;;15.75;51.58;99855.25;5278283;28;19927;-71
2022/11/02 14:01:10;;;;;;;;;;;;;;;15.81;52.00;99854.63;5274908;28;20009;-71
2022/11/02 14:04:09;;;;;;;;;;;;;;;15.98;50.83;99851.06;5280200;28;19919;-71
2022/11/02 14:07:01;;;;;;;;;;;;;;;16.13;50.95;99848.66;5285816;28;20632;-71
2022/11/02 14:09:55;;;;;;;;;;;;;;;16.15;50.26;99840.47;5269623;28;19927;-71
2022/11/02 14:12:48;;;;;;;;;;;;;;;16.25;51.07;99846.53;5245480;28;20341;-71
2022/11/02 14:15:41;;;;;;;;;;;;;;;16.10;51.15;99851.66;5230244;28;20562;-71
2022/11/02 14:18:32;;;;;;;;;;;;;;;15.83;51.69;99851.81;5261465;28;19927;-71
2022/11/02 14:21:41;;;;;;;;;;;;;;;15.97;51.61;99852.06;5266641;28;20068;-72
2022/11/02 14:24:34;;;;;;;;;;;;;;;16.11;50.30;99853.31;5250158;28;20293;-71
2022/11/02 14:27:25;;;;;;;;;;;;;;;16.01;49.93;99852.59;5265066;28;19965;-71
2022/11/02 14:30:33;;;;;;;;;;;;;;;15.73;49.91;99852.75;5276493;28;19920;-71
2022/11/02 14:33:30;;;;;;;;;;;;;;;15.91;51.25;99855.38;5272760;28;19990;-71
2022/11/02 14:36:39;;;;;;;;;;;;;;;16.05;51.06;99853.13;5265772;28;19942;-71
2022/11/02 14:39:29;;;;;;;;;;;;;;;15.86;51.15;99847.00;5257222;28;19935;-71
2022/11/02 14:42:37;;;;;;;;;;;;;;;15.82;50.60;99848.28;5273263;28;20404;-71
2022/11/02 14:45:30;;;;;;;;;;;;;;;15.82;51.08;99840.25;5266189;28;20301;-71
2022/11/02 14:48:29;;;;;;;;;;;;;;;15.61;51.84;99845.09;5264329;28;20064;-71
2022/11/02 14:51:21;;;;;;;;;;;;;;;15.90;51.49;99834.97;5273077;28;19943;-71
2022/11/02 14:54:16;;;;;;;;;;;;;;;15.75;51.48;99833.88;5266046;28;20072;-71
2022/11/02 14:57:15;;;;;;;;;;;;;;;15.87;51.71;99837.13;5264669;28;19920;-72
2022/11/02 15:00:17;;;;;;;;;;;;;;;15.79;51.28;99829.88;5275356;28;19930;-72
2022/11/02 15:03:24;;;;;;;;;;;;;;;15.78;52.92;99833.56;5281750;28;19920;-73
2022/11/02 15:06:14;;;;;;;;;;;;;;;15.67;52.73;99825.81;5271111;28;19934;-72
2022/11/02 15:09:04;;;;;;;;;;;;;;;15.56;53.24;99828.69;5280429;28;19931;-72
2022/11/02 15:11:58;;;;;;;;;;;;;;;15.47;54.99;99820.63;5277205;28;20389;-72
2022/11/02 15:14:48;;;;;;;;;;;;;;;15.45;55.61;99821.75;5271615;28;20289;-70
2022/11/02 15:17:37;;;;;;;;;;;;;;;15.39;55.78;99823.19;5279984;28;20385;-71
2022/11/02 15:20:29;;;;;;;;;;;;;;;15.34;56.51;99825.50;5270332;28;20578;-72
2022/11/02 15:23:20;;;;;;;;;;;;;;;15.23;56.40;99820.38;5261509;28;19926;-72